AirNav   Phillips 66 Aviation Fuel
 
 458 users online  

MO9 Kingsley Airfield
Miller, Missouri, USA

GOING TO MILLER?


FAA INFORMATION EFFECTIVE 23 MAY 2019

Location

FAA Identifier: MO9
Lat/Long: 37-13-47.3250N / 093-55-48.7500W
37-13.788750N / 093-55.812500W
37.2298125 / -93.9302083
(estimated)
Elevation: 1272 ft. / 388 m (estimated)
From city: 5 miles W of MILLER, MO
Time zone: UTC -5 (UTC -6 during Standard Time)
Zip code: 65707

Airport Operations

Airport use: Open to the public
Activation date: 06/2013
Control tower: no
ARTCC: KANSAS CITY CENTER
FSS: COLUMBIA FLIGHT SERVICE STATION
NOTAMs facility: COU (NOTAM-D service available)
Attendance: AL DUSK-DAWN
Wind indicator: yes
Segmented circle: no
Lights: SS-SR
Beacon: white-green (lighted land airport)
Operates sunset to sunrise.

Airport Communications

CTAF: 122.9
WX AWOS-3 at HFJ (20 nm S): 118.275 (417-476-2613)

Nearby radio navigation aids

VOR radial/distance  VOR name  Freq  Var
SGFr251/29.4SPRINGFIELD VORTAC116.9004E
EOSr039/33.6NEOSHO VOR/DME117.3007E

Airport Services

Fuel available: 100LL JET-A+
Parking: hangars and tiedowns
Airframe service: MAJOR
Powerplant service: MAJOR

Runway Information

Runway 18/36

Dimensions: 3119 x 150 ft. / 951 x 46 m
Surface: asphalt/turf, in good condition
RWY 18/36 SFC PARTIALLY PAVED WITH CHIP SEAL FM 550-1150 FT S OF RWY 18 THLD.
Runway edge lights: non-standard
NSTD LIRL: RY 18/36 NSTD LIRL DUE TO NSTD FIXTURES.
Gradient: N.
RUNWAY 18  RUNWAY 36
Latitude: 37-14.045000N37-13.532500N
Longitude: 093-55.788167W093-55.836833W
Elevation: 1261.9 ft.1247.7 ft.
Traffic pattern: rightleft
Obstructions: 15 ft. road, 32 ft. from runway, 125 ft. both sides of centerline, 2:1 slope to clearnone

Airport Ownership and Management from official FAA records

Ownership: Privately-owned
Owner: KIMAN KINGSLEY
3388 LAWRENCE 1070
MILLER, MO 65707
Phone 417-452-3831
Manager: KIMAN KINGSLEY
3388 LAWRENCE 1070
MILLER, MO 65707
Phone 417-452-3831

Airport Operational Statistics

Aircraft based on the field: 24
Single engine airplanes: 23
Ultralights: 1
    
Aircraft operations: avg 95/day *
99% local general aviation
1% transient general aviation
* for 12-month period ending 31 December 2015

Additional Remarks

HEAVY AGRICULTURAL OPNS.
AG TRAINING AVAILABLE
375 FT AGL ANT TWR APRXLY 2.2 SM S OF ARPT.

Instrument Procedures

There are no published instrument procedures at MO9.

Some nearby airports with instrument procedures:

2H2 - Jerry Sumners Sr. Aurora Municipal Airport (20 nm SE)
KHFJ - Monett Regional Airport (20 nm S)
KLLU - Lamar Municipal Airport (24 nm NW)
KSGF - Springfield-Branson National Airport (26 nm E)
MO3 - Stockton Municipal Airport (26 nm N)
 
Loc | Ops | Rwys | IFR | FBO | Links
Com | Nav | Svcs | Stats | Notes
Aerial photo
WARNING: Photo may not be current or correct
Aerial photo of MO9 (Kingsley Airfield)
Photo courtesy of Skyview Aerial Portraits
Photo taken 12-Dec-2016
looking northwest.

Do you have a better or more recent aerial photo of Kingsley Airfield that you would like to share? If so, please send us your photo.

 
Airport distance calculator
Flying to Kingsley Airfield? Find the distance to fly.

From to MO9

Sunrise and sunset
Times for 26-May-2019
 Local
(UTC-5)
 Zulu
(UTC)
Morning civil twilight05:3110:31
Sunrise06:0111:01
Sunset20:2501:25
Evening civil twilight20:5501:55

Current date and time
Zulu (UTC)  26-May-2019 10:24:50
Local (UTC-5)  26-May-2019 05:24:50
 
METAR
KHFJ 
20nm S 
260955Z AUTO 14008KT 10SM SCT120 18/18 A2994 RMK AO2 P0003
KSGF 
26nm E 
260952Z 15009KT 10SM FEW080 FEW110 21/18 A2998 RMK AO2 SLP139 T02110183
KJLN 
28nm W 
260953Z AUTO 15005KT 10SM CLR 18/17 A2998 RMK AO2 RAE11 PRESFR SLP143 P0000 T01780172
KEOS 
33nm SW 
SuperAWOS
260955Z AUTO 00000KT 10SM 18/18 A3001
TAF
KSGF 
26nm E 
260520Z 2606/2706 18008KT P6SM SCT100 FM260900 18010KT P6SM BKN100 TEMPO 2611/2615 4SM TSRA BR OVC050CB FM261500 20014G19KT P6SM VCSH BKN050 FM261800 21015G20KT P6SM SCT050 FM270000 17005KT P6SM FEW250
KJLN 
28nm W 
260520Z 2606/2706 20005KT P6SM SCT100 TEMPO 2608/2612 4SM TSRA BR OVC050CB FM261200 19013G18KT P6SM VCSH BKN050 OVC100 FM261600 20015G23KT P6SM SCT050 FM270000 19009KT P6SM FEW250
NOTAMs
Click for the latest NOTAMs
NOTAMs are issued by the DoD/FAA and will open in a separate window not controlled by AirNav.

 

 
 

FBO, Fuel Providers, and Aircraft Ground Support

  
 Business Name 
 
 Contact 
 
 Services / Description 
 
Fuel Prices
 
Comments
  
Plane Cents Aviation 417-452-3831
no information available

If you are affiliated with Plane Cents Aviation and would like to show here your services, contact info, web link, logo, and more, click here
100LL Jet A
FS $4.75 --- 
RA --- $4.00 
 Updated 25-Mar-2019
 
   1 read write
FS=Full service
RA=Restricted
Update Fuel Prices
 

Would you like to see your business listed on this page?

 If your business provides an interesting product or service to pilots, flight crews, aircraft, or users of the Kingsley Airfield, you should consider listing it here.  To start the listing process, click on the button below
 
Add a business
 

Other Pages about Kingsley Airfield

Update a link
 
Copyright © AirNav, LLC. All rights reserved. Privacy Policy  Contact